sensor_id;sensor_type;location;lat;lon;timestamp;P1;durP1;ratioP1;P2;durP2;ratioP2
18114;SDS011;9184;54.390;18.620;2023-04-24T00:00:00;53.90;;;35.22;;
18114;SDS011;9184;54.390;18.620;2023-04-24T00:00:33;46.85;;;34.50;;
18114;SDS011;9184;54.390;18.620;2023-04-24T00:01:03;49.70;;;36.88;;
18114;SDS011;9184;54.390;18.620;2023-04-24T00:01:37;52.10;;;37.58;;
18114;SDS011;9184;54.390;18.620;2023-04-24T00:02:09;50.22;;;36.08;;
18114;SDS011;9184;54.390;18.620;2023-04-24T00:02:41;55.22;;;37.10;;
18114;SDS011;9184;54.390;18.620;2023-04-24T00:03:16;70.53;;;44.15;;
18114;SDS011;9184;54.390;18.620;2023-04-24T00:03:47;50.95;;;39.28;;
18114;SDS011;9184;54.390;18.620;2023-04-24T00:04:18;49.97;;;37.22;;
18114;SDS011;9184;54.390;18.620;2023-04-24T00:04:49;64.35;;;42.45;;
18114;SDS011;9184;54.390;18.620;2023-04-24T00:05:19;71.63;;;45.80;;
18114;SDS011;9184;54.390;18.620;2023-04-24T00:05:51;81.45;;;45.50;;
18114;SDS011;9184;54.390;18.620;2023-04-24T00:06:22;70.40;;;45.63;;
18114;SDS011;9184;54.390;18.620;2023-04-24T00:06:53;81.18;;;44.53;;
18114;SDS011;9184;54.390;18.620;2023-04-24T00:07:27;75.82;;;43.45;;
18114;SDS011;9184;54.390;18.620;2023-04-24T00:07:57;61.38;;;37.45;;
18114;SDS011;9184;54.390;18.620;2023-04-24T00:08:28;61.60;;;40.13;;
18114;SDS011;9184;54.390;18.620;2023-04-24T00:08:59;78.10;;;44.70;;
18114;SDS011;9184;54.390;18.620;2023-04-24T00:09:30;75.88;;;47.78;;
18114;SDS011;9184;54.390;18.620;2023-04-24T00:10:00;74.90;;;46.10;;
18114;SDS011;9184;54.390;18.620;2023-04-24T00:10:32;80.20;;;52.13;;
18114;SDS011;9184;54.390;18.620;2023-04-24T00:11:03;81.80;;;47.85;;
18114;SDS011;9184;54.390;18.620;2023-04-24T00:11:33;71.57;;;47.50;;
18114;SDS011;9184;54.390;18.620;2023-04-24T00:12:06;85.20;;;48.53;;
18114;SDS011;9184;54.390;18.620;2023-04-24T00:12:37;74.28;;;45.47;;
18114;SDS011;9184;54.390;18.620;2023-04-24T00:13:08;72.65;;;46.85;;
18114;SDS011;9184;54.390;18.620;2023-04-24T00:13:38;77.63;;;49.25;;
18114;SDS011;9184;54.390;18.620;2023-04-24T00:14:10;72.05;;;47.45;;
18114;SDS011;9184;54.390;18.620;2023-04-24T00:14:40;74.80;;;46.92;;
18114;SDS011;9184;54.390;18.620;2023-04-24T00:15:11;76.32;;;49.30;;
18114;SDS011;9184;54.390;18.620;2023-04-24T00:15:41;69.20;;;48.10;;
18114;SDS011;9184;54.390;18.620;2023-04-24T00:16:13;66.80;;;45.30;;
18114;SDS011;9184;54.390;18.620;2023-04-24T00:16:43;66.43;;;44.10;;
18114;SDS011;9184;54.390;18.620;2023-04-24T00:17:14;68.22;;;48.85;;
18114;SDS011;9184;54.390;18.620;2023-04-24T00:17:45;67.80;;;48.10;;
18114;SDS011;9184;54.390;18.620;2023-04-24T00:18:16;76.28;;;51.15;;
18114;SDS011;9184;54.390;18.620;2023-04-24T00:18:46;79.22;;;54.95;;
18114;SDS011;9184;54.390;18.620;2023-04-24T00:19:18;90.35;;;59.03;;
18114;SDS011;9184;54.390;18.620;2023-04-24T00:19:51;82.05;;;56.95;;
18114;SDS011;9184;54.390;18.620;2023-04-24T00:20:28;77.00;;;52.30;;
18114;SDS011;9184;54.390;18.620;2023-04-24T00:21:00;71.32;;;49.78;;
18114;SDS011;9184;54.390;18.620;2023-04-24T00:21:30;68.57;;;48.50;;
18114;SDS011;9184;54.390;18.620;2023-04-24T00:22:02;65.40;;;45.97;;
18114;SDS011;9184;54.390;18.620;2023-04-24T00:22:33;60.35;;;43.72;;
18114;SDS011;9184;54.390;18.620;2023-04-24T00:23:04;59.70;;;44.72;;
18114;SDS011;9184;54.390;18.620;2023-04-24T00:23:35;69.70;;;45.63;;
18114;SDS011;9184;54.390;18.620;2023-04-24T00:24:06;66.50;;;45.08;;
18114;SDS011;9184;54.390;18.620;2023-04-24T00:24:36;61.58;;;43.72;;
18114;SDS011;9184;54.390;18.620;2023-04-24T00:25:08;58.22;;;42.45;;
18114;SDS011;9184;54.390;18.620;2023-04-24T00:25:38;57.17;;;41.63;;
18114;SDS011;9184;54.390;18.620;2023-04-24T00:26:10;57.65;;;42.75;;
18114;SDS011;9184;54.390;18.620;2023-04-24T00:26:41;65.28;;;45.90;;
18114;SDS011;9184;54.390;18.620;2023-04-24T00:27:13;66.97;;;46.92;;
18114;SDS011;9184;54.390;18.620;2023-04-24T00:27:43;64.20;;;46.95;;
18114;SDS011;9184;54.390;18.620;2023-04-24T00:28:15;62.33;;;46.30;;
18114;SDS011;9184;54.390;18.620;2023-04-24T00:28:45;65.97;;;47.83;;
18114;SDS011;9184;54.390;18.620;2023-04-24T00:29:16;66.25;;;46.30;;
18114;SDS011;9184;54.390;18.620;2023-04-24T00:29:47;72.28;;;49.08;;
18114;SDS011;9184;54.390;18.620;2023-04-24T00:30:18;68.63;;;48.50;;
18114;SDS011;9184;54.390;18.620;2023-04-24T00:30:48;63.75;;;48.20;;
18114;SDS011;9184;54.390;18.620;2023-04-24T00:31:20;61.63;;;46.38;;
18114;SDS011;9184;54.390;18.620;2023-04-24T00:31:50;65.43;;;46.47;;
18114;SDS011;9184;54.390;18.620;2023-04-24T00:32:22;70.57;;;47.72;;
18114;SDS011;9184;54.390;18.620;2023-04-24T00:32:52;79.00;;;48.03;;
18114;SDS011;9184;54.390;18.620;2023-04-24T00:33:23;70.30;;;48.33;;
18114;SDS011;9184;54.390;18.620;2023-04-24T00:33:53;69.28;;;50.45;;
18114;SDS011;9184;54.390;18.620;2023-04-24T00:34:24;70.05;;;49.60;;
18114;SDS011;9184;54.390;18.620;2023-04-24T00:34:55;74.88;;;50.03;;
18114;SDS011;9184;54.390;18.620;2023-04-24T00:35:25;73.05;;;46.70;;
18114;SDS011;9184;54.390;18.620;2023-04-24T00:35:57;71.03;;;48.47;;
18114;SDS011;9184;54.390;18.620;2023-04-24T00:36:27;86.93;;;52.47;;
18114;SDS011;9184;54.390;18.620;2023-04-24T00:36:58;76.47;;;49.85;;
18114;SDS011;9184;54.390;18.620;2023-04-24T00:37:29;74.88;;;49.28;;
18114;SDS011;9184;54.390;18.620;2023-04-24T00:38:00;69.05;;;47.00;;
18114;SDS011;9184;54.390;18.620;2023-04-24T00:38:30;78.28;;;48.88;;
18114;SDS011;9184;54.390;18.620;2023-04-24T00:39:02;62.97;;;47.35;;
18114;SDS011;9184;54.390;18.620;2023-04-24T00:39:32;64.60;;;47.13;;
18114;SDS011;9184;54.390;18.620;2023-04-24T00:40:03;68.22;;;45.58;;
18114;SDS011;9184;54.390;18.620;2023-04-24T00:40:36;57.88;;;41.72;;
18114;SDS011;9184;54.390;18.620;2023-04-24T00:41:06;59.75;;;44.10;;
18114;SDS011;9184;54.390;18.620;2023-04-24T00:41:37;57.30;;;41.95;;
18114;SDS011;9184;54.390;18.620;2023-04-24T00:42:08;65.00;;;45.47;;
18114;SDS011;9184;54.390;18.620;2023-04-24T00:42:40;60.53;;;45.08;;
18114;SDS011;9184;54.390;18.620;2023-04-24T00:43:11;59.78;;;43.30;;
18114;SDS011;9184;54.390;18.620;2023-04-24T00:43:42;68.82;;;43.65;;
18114;SDS011;9184;54.390;18.620;2023-04-24T00:44:13;68.78;;;43.22;;
18114;SDS011;9184;54.390;18.620;2023-04-24T00:44:44;68.10;;;44.55;;
18114;SDS011;9184;54.390;18.620;2023-04-24T00:45:14;60.22;;;42.50;;
18114;SDS011;9184;54.390;18.620;2023-04-24T00:45:46;61.67;;;43.00;;
18114;SDS011;9184;54.390;18.620;2023-04-24T00:46:16;62.15;;;42.70;;
18114;SDS011;9184;54.390;18.620;2023-04-24T00:46:47;52.40;;;40.33;;
18114;SDS011;9184;54.390;18.620;2023-04-24T00:47:22;69.50;;;44.80;;
18114;SDS011;9184;54.390;18.620;2023-04-24T00:47:53;72.85;;;45.75;;
18114;SDS011;9184;54.390;18.620;2023-04-24T00:48:24;60.55;;;43.65;;
18114;SDS011;9184;54.390;18.620;2023-04-24T00:48:56;57.92;;;42.35;;
18114;SDS011;9184;54.390;18.620;2023-04-24T00:49:27;61.72;;;42.78;;
18114;SDS011;9184;54.390;18.620;2023-04-24T00:49:57;60.35;;;43.05;;
18114;SDS011;9184;54.390;18.620;2023-04-24T00:50:29;60.38;;;41.08;;
18114;SDS011;9184;54.390;18.620;2023-04-24T00:51:00;60.78;;;42.15;;
18114;SDS011;9184;54.390;18.620;2023-04-24T00:51:31;54.28;;;39.78;;
18114;SDS011;9184;54.390;18.620;2023-04-24T00:52:02;56.78;;;41.30;;
18114;SDS011;9184;54.390;18.620;2023-04-24T00:52:37;58.17;;;42.00;;
18114;SDS011;9184;54.390;18.620;2023-04-24T00:53:10;56.42;;;41.58;;
18114;SDS011;9184;54.390;18.620;2023-04-24T00:53:42;55.33;;;40.38;;
18114;SDS011;9184;54.390;18.620;2023-04-24T00:54:12;56.17;;;39.50;;
18114;SDS011;9184;54.390;18.620;2023-04-24T00:54:43;57.75;;;41.75;;
18114;SDS011;9184;54.390;18.620;2023-04-24T00:55:13;56.78;;;41.22;;
18114;SDS011;9184;54.390;18.620;2023-04-24T00:55:45;59.47;;;41.83;;
18114;SDS011;9184;54.390;18.620;2023-04-24T00:56:15;60.47;;;40.53;;
18114;SDS011;9184;54.390;18.620;2023-04-24T00:56:46;59.08;;;43.63;;
18114;SDS011;9184;54.390;18.620;2023-04-24T00:57:17;53.95;;;41.75;;
18114;SDS011;9184;54.390;18.620;2023-04-24T00:57:49;51.15;;;38.75;;
18114;SDS011;9184;54.390;18.620;2023-04-24T00:58:20;53.88;;;40.45;;
18114;SDS011;9184;54.390;18.620;2023-04-24T00:58:52;60.97;;;42.60;;
18114;SDS011;9184;54.390;18.620;2023-04-24T00:59:22;57.28;;;40.03;;
18114;SDS011;9184;54.390;18.620;2023-04-24T00:59:53;52.65;;;39.28;;
18114;SDS011;9184;54.390;18.620;2023-04-24T01:00:24;51.47;;;38.08;;
18114;SDS011;9184;54.390;18.620;2023-04-24T01:00:55;57.60;;;39.80;;
18114;SDS011;9184;54.390;18.620;2023-04-24T01:01:27;55.70;;;40.67;;
18114;SDS011;9184;54.390;18.620;2023-04-24T01:01:58;54.63;;;40.33;;
18114;SDS011;9184;54.390;18.620;2023-04-24T01:02:29;60.30;;;39.65;;
18114;SDS011;9184;54.390;18.620;2023-04-24T01:03:00;54.67;;;40.05;;
18114;SDS011;9184;54.390;18.620;2023-04-24T01:03:32;54.65;;;39.70;;
18114;SDS011;9184;54.390;18.620;2023-04-24T01:04:04;55.33;;;39.53;;
18114;SDS011;9184;54.390;18.620;2023-04-24T01:04:37;56.58;;;40.30;;
18114;SDS011;9184;54.390;18.620;2023-04-24T01:05:08;56.45;;;40.80;;
18114;SDS011;9184;54.390;18.620;2023-04-24T01:05:38;67.85;;;41.92;;
18114;SDS011;9184;54.390;18.620;2023-04-24T01:06:10;59.50;;;41.47;;
18114;SDS011;9184;54.390;18.620;2023-04-24T01:06:41;60.80;;;42.13;;
18114;SDS011;9184;54.390;18.620;2023-04-24T01:07:12;58.90;;;40.45;;
18114;SDS011;9184;54.390;18.620;2023-04-24T01:07:43;64.97;;;41.95;;
18114;SDS011;9184;54.390;18.620;2023-04-24T01:08:15;71.82;;;44.88;;
18114;SDS011;9184;54.390;18.620;2023-04-24T01:08:46;63.65;;;43.42;;
18114;SDS011;9184;54.390;18.620;2023-04-24T01:09:19;66.85;;;43.10;;
18114;SDS011;9184;54.390;18.620;2023-04-24T01:09:51;68.25;;;43.75;;
18114;SDS011;9184;54.390;18.620;2023-04-24T01:10:22;68.38;;;44.15;;
18114;SDS011;9184;54.390;18.620;2023-04-24T01:10:54;68.82;;;44.30;;
18114;SDS011;9184;54.390;18.620;2023-04-24T01:11:25;70.57;;;44.00;;
18114;SDS011;9184;54.390;18.620;2023-04-24T01:11:56;71.22;;;44.17;;
18114;SDS011;9184;54.390;18.620;2023-04-24T01:12:26;76.80;;;45.00;;
18114;SDS011;9184;54.390;18.620;2023-04-24T01:12:59;68.32;;;42.78;;
18114;SDS011;9184;54.390;18.620;2023-04-24T01:13:30;69.35;;;41.70;;
18114;SDS011;9184;54.390;18.620;2023-04-24T01:14:01;72.57;;;45.05;;
18114;SDS011;9184;54.390;18.620;2023-04-24T01:14:33;64.47;;;42.47;;
18114;SDS011;9184;54.390;18.620;2023-04-24T01:15:04;72.05;;;43.40;;
18114;SDS011;9184;54.390;18.620;2023-04-24T01:15:35;73.57;;;44.10;;
18114;SDS011;9184;54.390;18.620;2023-04-24T01:16:06;72.20;;;42.95;;
18114;SDS011;9184;54.390;18.620;2023-04-24T01:16:37;72.05;;;42.88;;
18114;SDS011;9184;54.390;18.620;2023-04-24T01:17:08;60.42;;;39.10;;
18114;SDS011;9184;54.390;18.620;2023-04-24T01:17:39;68.60;;;44.88;;
18114;SDS011;9184;54.390;18.620;2023-04-24T01:18:11;69.93;;;43.00;;
18114;SDS011;9184;54.390;18.620;2023-04-24T01:18:41;71.20;;;43.97;;
18114;SDS011;9184;54.390;18.620;2023-04-24T01:19:12;63.50;;;40.58;;
18114;SDS011;9184;54.390;18.620;2023-04-24T01:19:44;63.42;;;40.65;;
18114;SDS011;9184;54.390;18.620;2023-04-24T01:20:15;65.15;;;41.38;;
18114;SDS011;9184;54.390;18.620;2023-04-24T01:20:46;67.28;;;40.72;;
18114;SDS011;9184;54.390;18.620;2023-04-24T01:21:18;62.67;;;39.90;;
18114;SDS011;9184;54.390;18.620;2023-04-24T01:21:52;61.75;;;39.22;;
18114;SDS011;9184;54.390;18.620;2023-04-24T01:22:25;61.00;;;39.00;;
18114;SDS011;9184;54.390;18.620;2023-04-24T01:22:55;58.80;;;38.35;;
18114;SDS011;9184;54.390;18.620;2023-04-24T01:23:27;62.72;;;39.47;;
18114;SDS011;9184;54.390;18.620;2023-04-24T01:23:58;66.18;;;38.90;;
18114;SDS011;9184;54.390;18.620;2023-04-24T01:24:28;63.58;;;40.75;;
18114;SDS011;9184;54.390;18.620;2023-04-24T01:25:00;64.15;;;39.47;;
18114;SDS011;9184;54.390;18.620;2023-04-24T01:25:30;63.08;;;38.55;;
18114;SDS011;9184;54.390;18.620;2023-04-24T01:26:01;62.17;;;37.92;;
18114;SDS011;9184;54.390;18.620;2023-04-24T01:26:33;60.30;;;39.17;;
18114;SDS011;9184;54.390;18.620;2023-04-24T01:27:03;59.53;;;38.20;;
18114;SDS011;9184;54.390;18.620;2023-04-24T01:27:34;68.35;;;39.85;;
18114;SDS011;9184;54.390;18.620;2023-04-24T01:28:05;60.00;;;38.58;;
18114;SDS011;9184;54.390;18.620;2023-04-24T01:28:36;65.10;;;38.70;;
18114;SDS011;9184;54.390;18.620;2023-04-24T01:29:07;59.50;;;37.80;;
18114;SDS011;9184;54.390;18.620;2023-04-24T01:29:38;60.47;;;39.00;;
18114;SDS011;9184;54.390;18.620;2023-04-24T01:30:09;58.58;;;40.00;;
18114;SDS011;9184;54.390;18.620;2023-04-24T01:30:40;63.42;;;39.00;;
18114;SDS011;9184;54.390;18.620;2023-04-24T01:31:12;58.85;;;39.58;;
18114;SDS011;9184;54.390;18.620;2023-04-24T01:31:42;64.47;;;40.38;;
18114;SDS011;9184;54.390;18.620;2023-04-24T01:32:13;60.45;;;39.95;;
18114;SDS011;9184;54.390;18.620;2023-04-24T01:32:45;65.18;;;41.38;;
18114;SDS011;9184;54.390;18.620;2023-04-24T01:33:15;68.20;;;41.00;;
18114;SDS011;9184;54.390;18.620;2023-04-24T01:33:46;63.83;;;40.97;;
18114;SDS011;9184;54.390;18.620;2023-04-24T01:34:18;63.17;;;39.03;;
18114;SDS011;9184;54.390;18.620;2023-04-24T01:34:49;63.22;;;40.75;;
18114;SDS011;9184;54.390;18.620;2023-04-24T01:35:19;63.88;;;41.67;;
18114;SDS011;9184;54.390;18.620;2023-04-24T01:35:51;63.15;;;40.72;;
18114;SDS011;9184;54.390;18.620;2023-04-24T01:36:21;60.38;;;38.83;;
18114;SDS011;9184;54.390;18.620;2023-04-24T01:36:52;67.15;;;41.47;;
18114;SDS011;9184;54.390;18.620;2023-04-24T01:37:26;67.70;;;42.42;;
18114;SDS011;9184;54.390;18.620;2023-04-24T01:37:57;63.47;;;39.80;;
18114;SDS011;9184;54.390;18.620;2023-04-24T01:38:27;58.63;;;39.83;;
18114;SDS011;9184;54.390;18.620;2023-04-24T01:38:59;63.10;;;40.35;;
18114;SDS011;9184;54.390;18.620;2023-04-24T01:39:30;65.70;;;40.20;;
18114;SDS011;9184;54.390;18.620;2023-04-24T01:40:01;61.63;;;39.28;;
18114;SDS011;9184;54.390;18.620;2023-04-24T01:40:33;60.50;;;40.28;;
18114;SDS011;9184;54.390;18.620;2023-04-24T01:41:04;62.30;;;39.30;;
18114;SDS011;9184;54.390;18.620;2023-04-24T01:41:34;63.13;;;40.33;;
18114;SDS011;9184;54.390;18.620;2023-04-24T01:42:05;67.63;;;41.67;;
18114;SDS011;9184;54.390;18.620;2023-04-24T01:42:36;63.83;;;38.33;;
18114;SDS011;9184;54.390;18.620;2023-04-24T01:43:07;67.35;;;41.17;;
18114;SDS011;9184;54.390;18.620;2023-04-24T01:43:37;58.67;;;38.85;;
18114;SDS011;9184;54.390;18.620;2023-04-24T01:44:09;63.47;;;37.70;;
18114;SDS011;9184;54.390;18.620;2023-04-24T01:44:40;57.50;;;38.53;;
18114;SDS011;9184;54.390;18.620;2023-04-24T01:45:11;63.00;;;39.10;;
18114;SDS011;9184;54.390;18.620;2023-04-24T01:45:43;57.28;;;36.90;;
18114;SDS011;9184;54.390;18.620;2023-04-24T01:46:14;56.40;;;37.85;;
18114;SDS011;9184;54.390;18.620;2023-04-24T01:46:45;53.30;;;36.65;;
18114;SDS011;9184;54.390;18.620;2023-04-24T01:47:16;59.28;;;38.33;;
18114;SDS011;9184;54.390;18.620;2023-04-24T01:47:47;56.80;;;37.38;;
18114;SDS011;9184;54.390;18.620;2023-04-24T01:48:18;63.25;;;36.97;;
18114;SDS011;9184;54.390;18.620;2023-04-24T01:48:50;54.25;;;35.08;;
18114;SDS011;9184;54.390;18.620;2023-04-24T01:49:21;59.30;;;35.30;;
18114;SDS011;9184;54.390;18.620;2023-04-24T01:49:51;56.15;;;37.58;;
18114;SDS011;9184;54.390;18.620;2023-04-24T01:50:22;53.38;;;36.67;;
18114;SDS011;9184;54.390;18.620;2023-04-24T01:50:53;60.70;;;37.28;;
18114;SDS011;9184;54.390;18.620;2023-04-24T01:51:24;54.85;;;36.63;;
18114;SDS011;9184;54.390;18.620;2023-04-24T01:51:55;55.72;;;37.55;;
18114;SDS011;9184;54.390;18.620;2023-04-24T01:52:27;53.53;;;35.05;;
18114;SDS011;9184;54.390;18.620;2023-04-24T01:53:01;64.57;;;40.25;;
18114;SDS011;9184;54.390;18.620;2023-04-24T01:53:31;59.28;;;39.08;;
18114;SDS011;9184;54.390;18.620;2023-04-24T01:54:02;62.90;;;38.92;;
18114;SDS011;9184;54.390;18.620;2023-04-24T01:54:34;60.85;;;37.15;;
18114;SDS011;9184;54.390;18.620;2023-04-24T01:55:04;56.00;;;37.78;;
18114;SDS011;9184;54.390;18.620;2023-04-24T01:55:35;58.30;;;37.47;;
18114;SDS011;9184;54.390;18.620;2023-04-24T01:56:06;63.10;;;40.80;;
18114;SDS011;9184;54.390;18.620;2023-04-24T01:56:37;66.05;;;40.25;;
18114;SDS011;9184;54.390;18.620;2023-04-24T01:57:09;67.53;;;41.20;;
18114;SDS011;9184;54.390;18.620;2023-04-24T01:57:40;75.35;;;41.60;;
18114;SDS011;9184;54.390;18.620;2023-04-24T01:58:11;73.53;;;42.97;;
18114;SDS011;9184;54.390;18.620;2023-04-24T01:58:42;70.93;;;40.15;;
18114;SDS011;9184;54.390;18.620;2023-04-24T01:59:13;65.97;;;41.95;;
18114;SDS011;9184;54.390;18.620;2023-04-24T01:59:45;63.83;;;38.97;;
18114;SDS011;9184;54.390;18.620;2023-04-24T02:00:15;58.22;;;37.35;;
18114;SDS011;9184;54.390;18.620;2023-04-24T02:00:46;60.70;;;38.92;;
18114;SDS011;9184;54.390;18.620;2023-04-24T02:01:17;64.78;;;39.88;;
18114;SDS011;9184;54.390;18.620;2023-04-24T02:01:48;55.22;;;35.03;;
18114;SDS011;9184;54.390;18.620;2023-04-24T02:02:18;55.53;;;37.20;;
18114;SDS011;9184;54.390;18.620;2023-04-24T02:02:53;58.92;;;37.80;;
18114;SDS011;9184;54.390;18.620;2023-04-24T02:03:23;54.05;;;34.97;;
18114;SDS011;9184;54.390;18.620;2023-04-24T02:03:55;50.47;;;33.50;;
18114;SDS011;9184;54.390;18.620;2023-04-24T02:04:26;55.85;;;34.33;;
18114;SDS011;9184;54.390;18.620;2023-04-24T02:04:57;54.05;;;34.70;;
18114;SDS011;9184;54.390;18.620;2023-04-24T02:05:27;48.72;;;33.53;;
18114;SDS011;9184;54.390;18.620;2023-04-24T02:05:58;51.88;;;32.38;;
18114;SDS011;9184;54.390;18.620;2023-04-24T02:06:29;52.22;;;33.83;;
18114;SDS011;9184;54.390;18.620;2023-04-24T02:07:01;51.28;;;33.33;;
18114;SDS011;9184;54.390;18.620;2023-04-24T02:07:34;52.72;;;33.80;;
18114;SDS011;9184;54.390;18.620;2023-04-24T02:08:04;56.08;;;35.10;;
18114;SDS011;9184;54.390;18.620;2023-04-24T02:08:34;54.17;;;34.92;;
18114;SDS011;9184;54.390;18.620;2023-04-24T02:09:06;55.88;;;34.83;;
18114;SDS011;9184;54.390;18.620;2023-04-24T02:09:36;52.88;;;31.50;;
18114;SDS011;9184;54.390;18.620;2023-04-24T02:10:07;52.15;;;33.08;;
18114;SDS011;9184;54.390;18.620;2023-04-24T02:10:39;48.30;;;33.25;;
18114;SDS011;9184;54.390;18.620;2023-04-24T02:11:10;48.17;;;33.50;;
18114;SDS011;9184;54.390;18.620;2023-04-24T02:11:40;54.10;;;34.13;;
18114;SDS011;9184;54.390;18.620;2023-04-24T02:12:11;42.78;;;30.52;;
18114;SDS011;9184;54.390;18.620;2023-04-24T02:12:42;47.97;;;31.13;;
18114;SDS011;9184;54.390;18.620;2023-04-24T02:13:12;50.38;;;32.17;;
18114;SDS011;9184;54.390;18.620;2023-04-24T02:13:44;43.00;;;28.60;;
18114;SDS011;9184;54.390;18.620;2023-04-24T02:14:14;48.83;;;29.08;;
18114;SDS011;9184;54.390;18.620;2023-04-24T02:14:45;36.40;;;26.60;;
18114;SDS011;9184;54.390;18.620;2023-04-24T02:15:16;40.00;;;27.25;;
18114;SDS011;9184;54.390;18.620;2023-04-24T02:15:47;44.03;;;28.55;;
18114;SDS011;9184;54.390;18.620;2023-04-24T02:16:19;41.22;;;27.38;;
18114;SDS011;9184;54.390;18.620;2023-04-24T02:16:51;41.40;;;28.77;;
18114;SDS011;9184;54.390;18.620;2023-04-24T02:17:21;43.83;;;29.30;;
18114;SDS011;9184;54.390;18.620;2023-04-24T02:17:52;45.67;;;29.67;;
18114;SDS011;9184;54.390;18.620;2023-04-24T02:18:24;43.90;;;29.25;;
18114;SDS011;9184;54.390;18.620;2023-04-24T02:18:54;43.30;;;28.55;;
18114;SDS011;9184;54.390;18.620;2023-04-24T02:19:25;41.08;;;28.52;;
18114;SDS011;9184;54.390;18.620;2023-04-24T02:19:57;43.83;;;28.48;;
18114;SDS011;9184;54.390;18.620;2023-04-24T02:20:27;37.08;;;26.77;;
18114;SDS011;9184;54.390;18.620;2023-04-24T02:20:58;39.92;;;27.40;;
18114;SDS011;9184;54.390;18.620;2023-04-24T02:21:28;38.42;;;26.05;;
18114;SDS011;9184;54.390;18.620;2023-04-24T02:22:00;39.70;;;27.98;;
18114;SDS011;9184;54.390;18.620;2023-04-24T02:22:31;36.75;;;26.60;;
18114;SDS011;9184;54.390;18.620;2023-04-24T02:23:03;43.50;;;26.75;;
18114;SDS011;9184;54.390;18.620;2023-04-24T02:23:34;40.55;;;25.90;;
18114;SDS011;9184;54.390;18.620;2023-04-24T02:24:05;39.55;;;26.25;;
18114;SDS011;9184;54.390;18.620;2023-04-24T02:24:35;38.90;;;26.35;;
18114;SDS011;9184;54.390;18.620;2023-04-24T02:25:07;40.20;;;25.10;;
18114;SDS011;9184;54.390;18.620;2023-04-24T02:25:38;40.05;;;25.42;;
18114;SDS011;9184;54.390;18.620;2023-04-24T02:26:09;40.15;;;24.15;;
18114;SDS011;9184;54.390;18.620;2023-04-24T02:26:39;37.88;;;24.83;;
18114;SDS011;9184;54.390;18.620;2023-04-24T02:27:11;38.08;;;25.65;;
18114;SDS011;9184;54.390;18.620;2023-04-24T02:27:41;37.90;;;26.13;;
18114;SDS011;9184;54.390;18.620;2023-04-24T02:28:12;41.38;;;26.63;;
18114;SDS011;9184;54.390;18.620;2023-04-24T02:28:43;40.60;;;27.25;;
18114;SDS011;9184;54.390;18.620;2023-04-24T02:29:14;40.13;;;28.15;;
18114;SDS011;9184;54.390;18.620;2023-04-24T02:29:44;40.10;;;28.38;;
18114;SDS011;9184;54.390;18.620;2023-04-24T02:30:16;41.25;;;26.48;;
18114;SDS011;9184;54.390;18.620;2023-04-24T02:30:46;38.67;;;27.00;;
18114;SDS011;9184;54.390;18.620;2023-04-24T02:31:17;43.72;;;29.45;;
18114;SDS011;9184;54.390;18.620;2023-04-24T02:31:47;39.55;;;27.90;;
18114;SDS011;9184;54.390;18.620;2023-04-24T02:32:19;43.47;;;28.42;;
18114;SDS011;9184;54.390;18.620;2023-04-24T02:32:49;43.00;;;28.08;;
18114;SDS011;9184;54.390;18.620;2023-04-24T02:33:20;42.85;;;27.98;;
18114;SDS011;9184;54.390;18.620;2023-04-24T02:33:50;43.00;;;30.05;;
18114;SDS011;9184;54.390;18.620;2023-04-24T02:34:22;41.53;;;28.17;;
18114;SDS011;9184;54.390;18.620;2023-04-24T02:34:53;45.15;;;28.83;;
18114;SDS011;9184;54.390;18.620;2023-04-24T02:35:23;38.58;;;27.55;;
18114;SDS011;9184;54.390;18.620;2023-04-24T02:35:55;44.20;;;28.42;;
18114;SDS011;9184;54.390;18.620;2023-04-24T02:36:25;45.85;;;28.05;;
18114;SDS011;9184;54.390;18.620;2023-04-24T02:36:56;48.88;;;30.17;;
18114;SDS011;9184;54.390;18.620;2023-04-24T02:37:27;44.33;;;30.85;;
18114;SDS011;9184;54.390;18.620;2023-04-24T02:37:58;47.75;;;31.23;;
18114;SDS011;9184;54.390;18.620;2023-04-24T02:38:29;42.67;;;28.48;;
18114;SDS011;9184;54.390;18.620;2023-04-24T02:39:02;45.15;;;29.73;;
18114;SDS011;9184;54.390;18.620;2023-04-24T02:39:33;44.95;;;27.63;;
18114;SDS011;9184;54.390;18.620;2023-04-24T02:40:04;43.55;;;28.52;;
18114;SDS011;9184;54.390;18.620;2023-04-24T02:40:36;59.05;;;30.70;;
18114;SDS011;9184;54.390;18.620;2023-04-24T02:41:06;52.60;;;28.50;;
18114;SDS011;9184;54.390;18.620;2023-04-24T02:41:37;36.83;;;27.17;;
18114;SDS011;9184;54.390;18.620;2023-04-24T02:42:08;48.38;;;29.27;;
18114;SDS011;9184;54.390;18.620;2023-04-24T02:42:39;47.15;;;31.45;;
18114;SDS011;9184;54.390;18.620;2023-04-24T02:43:10;47.92;;;30.67;;
18114;SDS011;9184;54.390;18.620;2023-04-24T02:43:40;49.67;;;31.23;;
18114;SDS011;9184;54.390;18.620;2023-04-24T02:44:12;54.45;;;32.33;;
18114;SDS011;9184;54.390;18.620;2023-04-24T02:44:42;49.65;;;31.88;;
18114;SDS011;9184;54.390;18.620;2023-04-24T02:45:13;57.63;;;32.65;;
18114;SDS011;9184;54.390;18.620;2023-04-24T02:45:44;63.22;;;33.88;;
18114;SDS011;9184;54.390;18.620;2023-04-24T02:46:15;75.13;;;37.70;;
18114;SDS011;9184;54.390;18.620;2023-04-24T02:46:45;61.42;;;35.58;;
18114;SDS011;9184;54.390;18.620;2023-04-24T02:47:17;58.38;;;34.95;;
18114;SDS011;9184;54.390;18.620;2023-04-24T02:47:47;71.55;;;34.60;;
18114;SDS011;9184;54.390;18.620;2023-04-24T02:48:17;69.35;;;37.15;;
18114;SDS011;9184;54.390;18.620;2023-04-24T02:48:50;59.33;;;34.60;;
18114;SDS011;9184;54.390;18.620;2023-04-24T02:49:21;66.07;;;36.40;;
18114;SDS011;9184;54.390;18.620;2023-04-24T02:49:51;62.00;;;35.90;;
18114;SDS011;9184;54.390;18.620;2023-04-24T02:50:23;71.35;;;34.25;;
18114;SDS011;9184;54.390;18.620;2023-04-24T02:50:53;69.00;;;36.75;;
18114;SDS011;9184;54.390;18.620;2023-04-24T02:51:24;66.18;;;35.00;;
18114;SDS011;9184;54.390;18.620;2023-04-24T02:51:56;62.58;;;34.85;;
18114;SDS011;9184;54.390;18.620;2023-04-24T02:52:27;65.88;;;35.72;;
18114;SDS011;9184;54.390;18.620;2023-04-24T02:52:57;58.85;;;34.88;;
18114;SDS011;9184;54.390;18.620;2023-04-24T02:53:30;63.45;;;35.65;;
18114;SDS011;9184;54.390;18.620;2023-04-24T02:54:01;65.47;;;36.78;;
18114;SDS011;9184;54.390;18.620;2023-04-24T02:54:31;67.07;;;37.58;;
18114;SDS011;9184;54.390;18.620;2023-04-24T02:55:03;64.20;;;36.85;;
18114;SDS011;9184;54.390;18.620;2023-04-24T02:55:33;67.90;;;36.47;;
18114;SDS011;9184;54.390;18.620;2023-04-24T02:56:04;70.05;;;37.30;;
18114;SDS011;9184;54.390;18.620;2023-04-24T02:56:35;69.25;;;35.55;;
18114;SDS011;9184;54.390;18.620;2023-04-24T02:57:06;64.28;;;34.85;;
18114;SDS011;9184;54.390;18.620;2023-04-24T02:57:36;69.60;;;36.40;;
18114;SDS011;9184;54.390;18.620;2023-04-24T02:58:07;75.05;;;38.65;;
18114;SDS011;9184;54.390;18.620;2023-04-24T02:58:38;75.40;;;37.63;;
18114;SDS011;9184;54.390;18.620;2023-04-24T02:59:08;67.63;;;33.67;;
18114;SDS011;9184;54.390;18.620;2023-04-24T02:59:40;74.60;;;35.83;;
18114;SDS011;9184;54.390;18.620;2023-04-24T03:00:11;76.93;;;37.47;;
18114;SDS011;9184;54.390;18.620;2023-04-24T03:00:42;68.00;;;35.05;;
18114;SDS011;9184;54.390;18.620;2023-04-24T03:01:13;82.70;;;37.08;;
18114;SDS011;9184;54.390;18.620;2023-04-24T03:01:44;78.00;;;36.33;;